Bhadrapur Airport


Codes: VNCG/BDP
Name: Bhadrapur Airport
City: Bhadrapur
Country: Nepal
Elevation: 300 ft.
Wikipedia:

Photos at Bhadrapur Airport


   Photos courtesy of SpottingLog. You can add your own sightings and photos by signing up for a free trial today.



No photos found.

Weather at Bhadrapur Airport


Time (UTC)DescriptionTempratureWindCloud coverageVisibilityPressureHumidity
25-Jun-2024 15:00Light Rain27°C7 mph, NE100%10000m1000hPa85%
25-Jun-2024 18:00Light Rain27°C4 mph, NE100%9866m1000hPa85%
25-Jun-2024 21:00Moderate Rain25°C7 mph, NE100%6257m1000hPa90%
26-Jun-2024 00:00Moderate Rain25°C4 mph, E100%6435m1001hPa92%
26-Jun-2024 03:00Moderate Rain25°C2 mph, E99%8886m1003hPa95%
26-Jun-2024 06:00Moderate Rain25°C4 mph, N100%10000m1003hPa96%
26-Jun-2024 09:00Light Rain26°C4 mph, NE100%10000m1001hPa92%
26-Jun-2024 12:00Overcast Clouds27°C2 mph, N100%10000m1000hPa88%
26-Jun-2024 15:00Overcast Clouds26°C2 mph, NE100%10000m1001hPa83%
26-Jun-2024 18:00Overcast Clouds26°C4 mph, NE100%10000m1002hPa83%
26-Jun-2024 21:00Overcast Clouds26°C4 mph, NE100%10000m1001hPa84%
27-Jun-2024 00:00Overcast Clouds26°C4 mph, NE100%10000m1002hPa84%
27-Jun-2024 03:00Overcast Clouds27°C7 mph, E100%10000m1004hPa84%
27-Jun-2024 06:00Overcast Clouds30°C2 mph, NE100%10000m1003hPa73%
27-Jun-2024 09:00Light Rain28°C4 mph, NW100%10000m1001hPa81%
27-Jun-2024 12:00Light Rain30°C2 mph, NE100%10000m1000hPa77%
27-Jun-2024 15:00Light Rain27°C7 mph, E99%10000m1002hPa84%
27-Jun-2024 18:00Moderate Rain26°C7 mph, NE99%7282m1003hPa91%
27-Jun-2024 21:00Moderate Rain25°C4 mph, NE100%3262m1002hPa94%
28-Jun-2024 00:00Moderate Rain25°C7 mph, NE100%6058m1002hPa94%
28-Jun-2024 03:00Light Rain26°C7 mph, NE100%10000m1003hPa96%
28-Jun-2024 06:00Overcast Clouds27°C9 mph, E100%10000m1002hPa88%
28-Jun-2024 09:00Light Rain30°C13 mph, E93%10000m1000hPa78%
28-Jun-2024 12:00Light Rain28°C11 mph, E96%10000m1000hPa87%
28-Jun-2024 15:00Overcast Clouds26°C11 mph, E100%10000m1002hPa92%
28-Jun-2024 18:00Light Rain25°C11 mph, E100%10000m1002hPa93%
28-Jun-2024 21:00Moderate Rain25°C9 mph, NE100%4756m1001hPa97%
29-Jun-2024 00:00Moderate Rain25°C9 mph, NE100%4125m1001hPa98%
29-Jun-2024 03:00Moderate Rain25°C13 mph, E100%6393m1002hPa97%
29-Jun-2024 06:00Moderate Rain25°C9 mph, E100%3905m1002hPa97%
29-Jun-2024 09:00Moderate Rain25°C13 mph, E100%10000m1001hPa96%
29-Jun-2024 12:00Light Rain25°C11 mph, E100%10000m1001hPa96%
29-Jun-2024 15:00Overcast Clouds24°C9 mph, E98%10000m1002hPa96%
29-Jun-2024 18:00Overcast Clouds24°C9 mph, E99%10000m1002hPa95%
29-Jun-2024 21:00Overcast Clouds24°C9 mph, E99%10000m1000hPa95%
30-Jun-2024 00:00Broken Clouds24°C9 mph, E82%10000m1000hPa94%
30-Jun-2024 03:00Broken Clouds28°C13 mph, E53%10000m1001hPa81%
30-Jun-2024 06:00Light Rain29°C13 mph, E73%10000m999hPa74%
30-Jun-2024 09:00Light Rain31°C11 mph, E81%10000m997hPa67%
30-Jun-2024 12:00Moderate Rain29°C11 mph, E63%9890m997hPa81%